LHPR/QGY METAR and TAF weather

Enter ICAO airport designator
Station Type Date Time Source
LHPR METAR 2024/04/18 07:45 UTC NOAA

LHPR 180745Z AUTO 34016KT 310V010 9999 FEW027 09/02 Q1009 NOSIG


Station Type Date Time Source
LHPR Decoded METAR 2024/04/18 07:45 UTC NOAA

Station name not available
Apr 18, 2024 - 03:45 AM EDT / 2024.04.18 0745 UTC
Wind: from the NNW (340 degrees) at 18 MPH (16 KT) (direction variable):0
Visibility: greater than 7 mile(s):0
Sky conditions: mostly clear
Temperature: 48 F (9 C)
Dew Point: 35 F (2 C)
Relative Humidity: 61%
Pressure (altimeter): 29.80 in. Hg (1009 hPa)
ob: LHPR 180745Z AUTO 34016KT 310V010 9999 FEW027 09/02 Q1009 NOSIG
cycle: 8

Station Type Date Time Source
LHPR TAF UTC NOAA

Error!

Example: see airport list